createdAt,value
2018-06-29T00:06:43.277Z,1013.9
2018-06-29T00:16:57.102Z,1013.9
2018-06-29T00:27:11.422Z,1013.8
2018-06-29T00:37:25.133Z,1013.6
2018-06-29T00:47:40.536Z,1013.6
2018-06-29T00:57:55.774Z,1013.7
2018-06-29T01:08:09.464Z,1013.7
2018-06-29T01:18:25.018Z,1013.7
2018-06-29T01:28:40.734Z,1013.7
2018-06-29T01:38:54.862Z,1013.6
2018-06-29T01:49:10.708Z,1013.6
2018-06-29T01:59:25.625Z,1013.5
2018-06-29T02:09:39.540Z,1013.5
2018-06-29T02:19:53.715Z,1013.5
2018-06-29T02:30:08.226Z,1013.4
2018-06-29T02:40:22.112Z,1013.3
2018-06-29T02:50:36.387Z,1013.3
2018-06-29T03:00:50.322Z,1013.3
2018-06-29T03:11:04.278Z,1013.4
2018-06-29T03:21:19.907Z,1013.3
2018-06-29T03:31:35.102Z,1013.3
2018-06-29T03:41:50.803Z,1013.3
2018-06-29T03:52:06.280Z,1013.3
2018-06-29T04:02:21.097Z,1013.3
2018-06-29T04:12:34.990Z,1013.3
2018-06-29T04:22:50.439Z,1013.4
2018-06-29T04:33:05.037Z,1013.4
2018-06-29T04:43:20.177Z,1013.4
2018-06-29T04:53:34.977Z,1013.3
2018-06-29T05:03:48.904Z,1013.2
2018-06-29T05:14:04.335Z,1013.4
2018-06-29T05:24:19.708Z,1013.3
2018-06-29T05:34:34.746Z,1013.4
2018-06-29T05:44:50.189Z,1013.5
2018-06-29T05:55:04.942Z,1013.5
2018-06-29T06:05:20.824Z,1013.5
2018-06-29T06:15:36.308Z,1013.5
2018-06-29T06:25:50.972Z,1013.4
2018-06-29T06:36:06.075Z,1013.4
2018-06-29T06:46:20.611Z,1013.5
2018-06-29T06:56:35.866Z,1013.4
2018-06-29T07:06:50.118Z,1013.3
2018-06-29T07:17:05.266Z,1013.3
2018-06-29T07:27:19.991Z,1013.2
2018-06-29T07:37:35.386Z,1013.2
2018-06-29T07:47:50.536Z,1013.1
2018-06-29T07:58:04.252Z,1013
2018-06-29T08:08:19.612Z,1013
2018-06-29T08:18:34.746Z,1013
2018-06-29T08:28:48.813Z,1013.1
2018-06-29T08:39:03.500Z,1013.1
2018-06-29T08:49:18.716Z,1012.9
2018-06-29T08:59:33.632Z,1012.8
2018-06-29T09:09:49.223Z,1012.8
2018-06-29T09:20:03.242Z,1012.7
2018-06-29T09:30:18.738Z,1012.6
2018-06-29T09:40:32.932Z,1012.7
2018-06-29T09:50:48.307Z,1012.6
2018-06-29T10:01:04.145Z,1012.4
2018-06-29T10:11:18.692Z,1012.4
2018-06-29T10:21:33.022Z,1012.2
2018-06-29T10:31:48.726Z,1012.2
2018-06-29T10:42:04.485Z,1012.1
2018-06-29T10:52:20.225Z,1012
2018-06-29T11:02:34.243Z,1011.9
2018-06-29T11:12:49.920Z,1011.8
2018-06-29T11:23:05.850Z,1011.7
2018-06-29T11:33:19.989Z,1011.6
2018-06-29T11:43:35.616Z,1011.6
2018-06-29T11:53:49.658Z,1011.5
2018-06-29T12:04:03.769Z,1011.5
2018-06-29T12:14:18.122Z,1011.4
2018-06-29T12:24:33.164Z,1011.4
2018-06-29T12:34:47.878Z,1011.6
2018-06-29T12:45:02.535Z,1011.5
2018-06-29T12:55:18.236Z,1011.9
2018-06-29T13:05:34.373Z,1011.6
2018-06-29T13:15:49.341Z,1011.5
2018-06-29T13:26:04.534Z,1011.8
2018-06-29T13:36:18.814Z,1011.7
2018-06-29T13:46:33.991Z,1012
2018-06-29T13:56:48.717Z,1011.3
2018-06-29T14:07:03.405Z,1010.9
2018-06-29T14:17:18.577Z,1010.4
2018-06-29T14:27:33.514Z,1010.3
2018-06-29T14:37:48.590Z,1010
2018-06-29T14:48:03.396Z,1009.9
2018-06-29T14:58:18.392Z,1009.9
2018-06-29T15:08:33.338Z,1009.8
2018-06-29T15:18:49.176Z,1009.7
2018-06-29T15:29:05.153Z,1009.6
2018-06-29T15:39:20.842Z,1009.6
2018-06-29T15:49:35.030Z,1009.6
2018-06-29T15:59:49.407Z,1009.4
2018-06-29T16:10:03.831Z,1009.4
2018-06-29T16:20:19.249Z,1009.2
2018-06-29T16:30:34.261Z,1009.2
2018-06-29T16:40:48.124Z,1009.1
2018-06-29T16:51:02.955Z,1009.2
2018-06-29T17:01:18.263Z,1009.1
2018-06-29T17:11:32.790Z,1009.1
2018-06-29T17:21:48.140Z,1009.2
2018-06-29T17:32:03.862Z,1009.3
2018-06-29T17:42:18.330Z,1009.2
2018-06-29T17:52:32.686Z,1009.2
2018-06-29T18:02:47.664Z,1009.2
2018-06-29T18:13:02.239Z,1009.2
2018-06-29T18:23:16.340Z,1009.1
2018-06-29T18:33:31.883Z,1009.2
2018-06-29T18:43:46.752Z,1009.2
2018-06-29T18:54:02.015Z,1009.2
2018-06-29T19:04:16.114Z,1009.2
2018-06-29T19:14:29.912Z,1009.3
2018-06-29T19:24:45.324Z,1009.4
2018-06-29T19:35:01.026Z,1009.4
2018-06-29T19:45:15.362Z,1009.4
2018-06-29T19:55:29.517Z,1009.5
2018-06-29T20:05:45.529Z,1009.6
2018-06-29T20:15:58.822Z,1009.7
2018-06-29T20:26:13.649Z,1009.7
2018-06-29T20:36:27.184Z,1009.7
2018-06-29T20:46:41.130Z,1009.8
2018-06-29T20:56:55.165Z,1009.9
2018-06-29T21:07:09.861Z,1010
2018-06-29T21:17:25.128Z,1010
2018-06-29T21:27:40.360Z,1010
2018-06-29T21:37:54.103Z,1010
2018-06-29T21:48:09.666Z,1010
2018-06-29T21:58:24.431Z,1010
2018-06-29T22:08:39.912Z,1010.1
2018-06-29T22:18:55.028Z,1010.1
2018-06-29T22:29:09.698Z,1010.1
2018-06-29T22:39:25.222Z,1010.1
2018-06-29T22:49:40.545Z,1010.1
2018-06-29T22:59:55.605Z,1010
2018-06-29T23:10:10.332Z,1010
2018-06-29T23:20:24.155Z,1010
2018-06-29T23:30:37.956Z,1010
2018-06-29T23:40:53.160Z,1009.9
2018-06-29T23:51:07.852Z,1009.9
